Athens Ben Epps Airport Athens US
ICAO: KAHN
IATA: AHN
Category: Medium
Scheduled Services: Yes

Elevation: 808 ft
TransAlt. 18000 ft.

Airport Communications:
ATLANTA APP/DEP:127.5
ASOS:132.875
ATLANTA CNTR:127.5
CTAF:126.3
GND:121.8
MACON RDO:109.6
TWR:126.3
UNICOM:122.95

KAHN Zoom In..

If you have problems with the map follow the link
https://www.worldairports.se/pages/airport.php?
ICAO=KAHN

Runways:

(A) RW 02 length 3955 ft width 100 ft
---- / hdg 24

(B) RW 09 length 5522 ft width 100 ft
---- / hdg 91

(C) RW 20 length 3955 ft width 100 ft
---- / hdg 204

(D) RW 27 length 5522 ft width 100 ft
ILS 110.95 / hdg 271

Location; KAHN
Day. 08 / Time. 03.51 Zulu
* Altimeter: 30.31
* Temperature: 09° c. 48.2°f.
* Wind from: 080° Speed 06 kn.
Dewpoint: 04° c.
Visibility: 10 Statute Miles.
Clouds: Overcast 6500 ft.

KAHN 080351Z AUTO 08006KT 10SM OVC065 09/04 A3031 RMK AO2 SLP265 T00890044


Wind From 080°
Speed 06 kn.

 
 
jpsmedia worldairports.se 2019   terms of use